sensor_id;sensor_type;location;lat;lon;timestamp;temperature;humidity
76305;DHT22;65111;50.536;19.204;2023-02-28T00:00:47;-3275.90;74.90
76305;DHT22;65111;50.536;19.204;2023-02-28T00:03:13;-3275.70;75.20
76305;DHT22;65111;50.536;19.204;2023-02-28T00:05:39;-3275.80;75.40
76305;DHT22;65111;50.536;19.204;2023-02-28T00:08:05;-3275.60;75.60
76305;DHT22;65111;50.536;19.204;2023-02-28T00:10:31;-3275.70;75.50
76305;DHT22;65111;50.536;19.204;2023-02-28T00:13:03;-3275.50;75.90
76305;DHT22;65111;50.536;19.204;2023-02-28T00:15:31;-3275.50;76.20
76305;DHT22;65111;50.536;19.204;2023-02-28T00:17:57;-3275.40;76.10
76305;DHT22;65111;50.536;19.204;2023-02-28T00:20:24;-3275.50;76.20
76305;DHT22;65111;50.536;19.204;2023-02-28T00:22:52;-3275.40;76.10
76305;DHT22;65111;50.536;19.204;2023-02-28T00:25:22;-3275.50;76.20
76305;DHT22;65111;50.536;19.204;2023-02-28T00:27:48;-3275.60;76.40
76305;DHT22;65111;50.536;19.204;2023-02-28T00:30:22;-3275.80;76.50
76305;DHT22;65111;50.536;19.204;2023-02-28T00:32:49;-3275.80;76.50
76305;DHT22;65111;50.536;19.204;2023-02-28T00:35:16;-3275.80;76.40
76305;DHT22;65111;50.536;19.204;2023-02-28T00:37:43;-3275.50;76.50
76305;DHT22;65111;50.536;19.204;2023-02-28T00:40:10;-3275.60;76.40
76305;DHT22;65111;50.536;19.204;2023-02-28T00:42:38;-3275.70;76.40
76305;DHT22;65111;50.536;19.204;2023-02-28T00:45:04;-3275.60;76.50
76305;DHT22;65111;50.536;19.204;2023-02-28T00:47:31;-3275.70;76.50
76305;DHT22;65111;50.536;19.204;2023-02-28T00:49:58;-3275.60;76.20
76305;DHT22;65111;50.536;19.204;2023-02-28T00:52:24;-3275.40;76.20
76305;DHT22;65111;50.536;19.204;2023-02-28T00:54:50;-3275.40;76.40
76305;DHT22;65111;50.536;19.204;2023-02-28T00:57:16;-3275.30;76.40
76305;DHT22;65111;50.536;19.204;2023-02-28T00:59:42;-3275.50;76.50
76305;DHT22;65111;50.536;19.204;2023-02-28T01:02:07;-3275.40;76.60
76305;DHT22;65111;50.536;19.204;2023-02-28T01:04:33;-3275.30;76.60
76305;DHT22;65111;50.536;19.204;2023-02-28T01:06:59;-3275.30;76.80
76305;DHT22;65111;50.536;19.204;2023-02-28T01:09:25;-3275.40;76.80
76305;DHT22;65111;50.536;19.204;2023-02-28T01:11:51;-3275.20;77.10
76305;DHT22;65111;50.536;19.204;2023-02-28T01:14:17;-3275.40;77.50
76305;DHT22;65111;50.536;19.204;2023-02-28T01:16:44;-3275.30;77.60
76305;DHT22;65111;50.536;19.204;2023-02-28T01:19:10;-3275.30;77.30
76305;DHT22;65111;50.536;19.204;2023-02-28T01:21:36;-3275.20;77.40
76305;DHT22;65111;50.536;19.204;2023-02-28T01:24:03;-3275.10;77.50
76305;DHT22;65111;50.536;19.204;2023-02-28T01:26:30;-3275.20;77.50
76305;DHT22;65111;50.536;19.204;2023-02-28T01:28:56;-3275.20;77.50
76305;DHT22;65111;50.536;19.204;2023-02-28T01:31:22;-3274.90;77.80
76305;DHT22;65111;50.536;19.204;2023-02-28T01:33:49;-3275.00;78.10
76305;DHT22;65111;50.536;19.204;2023-02-28T01:36:19;-3274.80;78.40
76305;DHT22;65111;50.536;19.204;2023-02-28T01:38:46;-3274.70;78.30
76305;DHT22;65111;50.536;19.204;2023-02-28T01:41:33;-3274.80;78.80
76305;DHT22;65111;50.536;19.204;2023-02-28T01:47:10;-3274.60;79.30
76305;DHT22;65111;50.536;19.204;2023-02-28T01:49:37;-3274.60;79.30
76305;DHT22;65111;50.536;19.204;2023-02-28T01:52:03;-3274.50;79.30
76305;DHT22;65111;50.536;19.204;2023-02-28T01:54:34;-3274.40;79.40
76305;DHT22;65111;50.536;19.204;2023-02-28T01:57:01;-3274.40;79.90
76305;DHT22;65111;50.536;19.204;2023-02-28T02:02:06;-3274.10;80.60
76305;DHT22;65111;50.536;19.204;2023-02-28T02:04:37;-3274.30;80.60
76305;DHT22;65111;50.536;19.204;2023-02-28T02:07:04;-3274.30;80.50
76305;DHT22;65111;50.536;19.204;2023-02-28T02:09:30;-3274.20;80.70
76305;DHT22;65111;50.536;19.204;2023-02-28T02:11:57;-3274.20;80.50
76305;DHT22;65111;50.536;19.204;2023-02-28T02:17:25;-3274.20;80.60
76305;DHT22;65111;50.536;19.204;2023-02-28T02:23:13;-3274.30;80.60
76305;DHT22;65111;50.536;19.204;2023-02-28T02:29:13;-3274.70;80.40
76305;DHT22;65111;50.536;19.204;2023-02-28T02:32:02;-3274.50;80.40
76305;DHT22;65111;50.536;19.204;2023-02-28T02:35:05;-3274.60;80.30
76305;DHT22;65111;50.536;19.204;2023-02-28T02:37:43;-3274.60;80.20
76305;DHT22;65111;50.536;19.204;2023-02-28T02:43:20;-3274.80;79.60
76305;DHT22;65111;50.536;19.204;2023-02-28T02:45:59;-3274.80;79.40
76305;DHT22;65111;50.536;19.204;2023-02-28T02:48:31;-3274.90;79.40
76305;DHT22;65111;50.536;19.204;2023-02-28T02:51:00;-3274.60;79.40
76305;DHT22;65111;50.536;19.204;2023-02-28T02:53:32;-3274.80;79.50
76305;DHT22;65111;50.536;19.204;2023-02-28T02:56:01;-3274.70;79.20
76305;DHT22;65111;50.536;19.204;2023-02-28T02:58:33;-3274.70;79.40
76305;DHT22;65111;50.536;19.204;2023-02-28T03:01:02;-3274.70;79.40
76305;DHT22;65111;50.536;19.204;2023-02-28T03:03:31;-3274.60;79.50
76305;DHT22;65111;50.536;19.204;2023-02-28T03:06:00;-3274.80;79.50
76305;DHT22;65111;50.536;19.204;2023-02-28T03:08:30;-3274.80;79.50
76305;DHT22;65111;50.536;19.204;2023-02-28T03:11:01;-3274.70;79.30
76305;DHT22;65111;50.536;19.204;2023-02-28T03:13:50;-3274.50;79.10
76305;DHT22;65111;50.536;19.204;2023-02-28T03:32:58;-3274.00;80.10
76305;DHT22;65111;50.536;19.204;2023-02-28T03:35:40;-3273.90;80.10
76305;DHT22;65111;50.536;19.204;2023-02-28T03:40:58;-3273.80;80.60
76305;DHT22;65111;50.536;19.204;2023-02-28T03:43:29;-3273.80;80.70
76305;DHT22;65111;50.536;19.204;2023-02-28T03:45:59;-3273.70;81.00
76305;DHT22;65111;50.536;19.204;2023-02-28T03:48:36;-3273.60;81.40
76305;DHT22;65111;50.536;19.204;2023-02-28T03:51:06;-3273.80;81.40
76305;DHT22;65111;50.536;19.204;2023-02-28T03:53:36;-3273.60;81.30
76305;DHT22;65111;50.536;19.204;2023-02-28T03:58:55;-3273.50;81.20
76305;DHT22;65111;50.536;19.204;2023-02-28T04:01:35;-3273.50;81.20
76305;DHT22;65111;50.536;19.204;2023-02-28T04:04:03;-3273.30;81.30
76305;DHT22;65111;50.536;19.204;2023-02-28T04:06:32;-3273.20;81.40
76305;DHT22;65111;50.536;19.204;2023-02-28T04:08:58;-3273.10;81.50
76305;DHT22;65111;50.536;19.204;2023-02-28T04:11:46;-3273.00;81.50
76305;DHT22;65111;50.536;19.204;2023-02-28T04:14:15;-3273.00;81.70
76305;DHT22;65111;50.536;19.204;2023-02-28T04:16:42;-3272.90;81.80
76305;DHT22;65111;50.536;19.204;2023-02-28T04:19:10;-3272.80;81.80
76305;DHT22;65111;50.536;19.204;2023-02-28T04:21:54;-3272.80;82.00
76305;DHT22;65111;50.536;19.204;2023-02-28T04:24:22;-3272.70;82.30
76305;DHT22;65111;50.536;19.204;2023-02-28T04:26:52;-3272.70;82.60
76305;DHT22;65111;50.536;19.204;2023-02-28T04:29:27;-3272.70;82.50
76305;DHT22;65111;50.536;19.204;2023-02-28T04:31:54;-3272.70;82.40
76305;DHT22;65111;50.536;19.204;2023-02-28T04:34:20;-3272.70;82.40
76305;DHT22;65111;50.536;19.204;2023-02-28T04:36:47;-3272.70;82.40
76305;DHT22;65111;50.536;19.204;2023-02-28T04:39:17;-3272.70;82.60
76305;DHT22;65111;50.536;19.204;2023-02-28T04:41:45;-3272.80;82.40
76305;DHT22;65111;50.536;19.204;2023-02-28T04:44:11;-3272.80;82.50
76305;DHT22;65111;50.536;19.204;2023-02-28T04:46:37;-3272.70;82.50
76305;DHT22;65111;50.536;19.204;2023-02-28T04:49:03;-3272.80;82.30
76305;DHT22;65111;50.536;19.204;2023-02-28T04:51:29;-3272.80;82.30
76305;DHT22;65111;50.536;19.204;2023-02-28T04:53:55;-3272.70;82.20
76305;DHT22;65111;50.536;19.204;2023-02-28T04:56:22;-3272.80;82.20
76305;DHT22;65111;50.536;19.204;2023-02-28T04:58:48;-3272.90;82.20
76305;DHT22;65111;50.536;19.204;2023-02-28T05:03:45;-3272.80;82.00
76305;DHT22;65111;50.536;19.204;2023-02-28T05:06:12;-3272.70;82.20
76305;DHT22;65111;50.536;19.204;2023-02-28T05:08:39;-3272.70;82.20
76305;DHT22;65111;50.536;19.204;2023-02-28T05:11:12;-3272.70;82.20
76305;DHT22;65111;50.536;19.204;2023-02-28T05:13:39;-3272.60;82.50
76305;DHT22;65111;50.536;19.204;2023-02-28T05:16:05;-3272.60;82.60
76305;DHT22;65111;50.536;19.204;2023-02-28T05:18:31;-3272.50;82.60
76305;DHT22;65111;50.536;19.204;2023-02-28T05:20:57;-3272.50;82.60
76305;DHT22;65111;50.536;19.204;2023-02-28T05:23:23;-3272.50;82.70
76305;DHT22;65111;50.536;19.204;2023-02-28T05:25:49;-3272.40;82.80
76305;DHT22;65111;50.536;19.204;2023-02-28T05:28:15;-3272.40;82.70
76305;DHT22;65111;50.536;19.204;2023-02-28T05:30:41;-3272.40;83.10
76305;DHT22;65111;50.536;19.204;2023-02-28T05:33:11;-3272.20;83.20
76305;DHT22;65111;50.536;19.204;2023-02-28T05:35:39;-3272.20;83.30
76305;DHT22;65111;50.536;19.204;2023-02-28T05:38:06;-3272.20;83.70
76305;DHT22;65111;50.536;19.204;2023-02-28T05:40:32;-3272.30;83.90
76305;DHT22;65111;50.536;19.204;2023-02-28T05:42:58;-3272.30;84.50
76305;DHT22;65111;50.536;19.204;2023-02-28T05:45:24;-3272.40;84.40
76305;DHT22;65111;50.536;19.204;2023-02-28T05:47:53;-3272.40;84.30
76305;DHT22;65111;50.536;19.204;2023-02-28T05:50:20;-3272.50;84.30
76305;DHT22;65111;50.536;19.204;2023-02-28T05:52:52;-3272.70;83.90
76305;DHT22;65111;50.536;19.204;2023-02-28T05:55:18;-3272.80;83.70
76305;DHT22;65111;50.536;19.204;2023-02-28T05:57:44;-3272.90;83.90
76305;DHT22;65111;50.536;19.204;2023-02-28T06:00:11;-3273.20;83.80
76305;DHT22;65111;50.536;19.204;2023-02-28T06:02:39;-3273.60;83.50
76305;DHT22;65111;50.536;19.204;2023-02-28T06:05:13;-3273.60;83.00
76305;DHT22;65111;50.536;19.204;2023-02-28T06:07:39;-3274.00;82.30
76305;DHT22;65111;50.536;19.204;2023-02-28T06:10:05;-3274.00;82.00
76305;DHT22;65111;50.536;19.204;2023-02-28T06:12:31;-3274.20;81.90
76305;DHT22;65111;50.536;19.204;2023-02-28T06:14:57;-3274.60;81.80
76305;DHT22;65111;50.536;19.204;2023-02-28T06:17:23;-3275.00;81.60
76305;DHT22;65111;50.536;19.204;2023-02-28T06:19:49;-3275.50;80.90
76305;DHT22;65111;50.536;19.204;2023-02-28T06:22:15;-3276.20;80.10
76305;DHT22;65111;50.536;19.204;2023-02-28T06:24:41;0.00;79.00
76305;DHT22;65111;50.536;19.204;2023-02-28T06:27:07;0.80;77.00
76305;DHT22;65111;50.536;19.204;2023-02-28T06:29:33;1.40;74.60
76305;DHT22;65111;50.536;19.204;2023-02-28T06:32:00;2.40;72.10
76305;DHT22;65111;50.536;19.204;2023-02-28T06:34:26;3.20;69.80
76305;DHT22;65111;50.536;19.204;2023-02-28T06:36:52;4.00;67.10
76305;DHT22;65111;50.536;19.204;2023-02-28T06:39:19;4.80;64.40
76305;DHT22;65111;50.536;19.204;2023-02-28T06:41:45;5.60;62.60
76305;DHT22;65111;50.536;19.204;2023-02-28T06:44:17;6.20;60.20
76305;DHT22;65111;50.536;19.204;2023-02-28T06:46:44;6.90;57.30
76305;DHT22;65111;50.536;19.204;2023-02-28T06:49:11;7.40;56.70
76305;DHT22;65111;50.536;19.204;2023-02-28T06:51:40;7.80;55.40
76305;DHT22;65111;50.536;19.204;2023-02-28T06:54:07;8.30;53.40
76305;DHT22;65111;50.536;19.204;2023-02-28T06:56:37;8.70;52.70
76305;DHT22;65111;50.536;19.204;2023-02-28T06:59:03;9.10;51.70
76305;DHT22;65111;50.536;19.204;2023-02-28T07:01:30;9.60;50.70
76305;DHT22;65111;50.536;19.204;2023-02-28T07:03:59;9.90;49.90
76305;DHT22;65111;50.536;19.204;2023-02-28T07:06:26;10.00;47.90
76305;DHT22;65111;50.536;19.204;2023-02-28T07:08:53;10.10;47.80
76305;DHT22;65111;50.536;19.204;2023-02-28T07:11:21;10.20;47.30
76305;DHT22;65111;50.536;19.204;2023-02-28T07:13:49;10.20;47.90
76305;DHT22;65111;50.536;19.204;2023-02-28T07:16:16;10.50;47.40
76305;DHT22;65111;50.536;19.204;2023-02-28T07:18:42;10.80;46.40
76305;DHT22;65111;50.536;19.204;2023-02-28T07:21:09;11.10;46.30
76305;DHT22;65111;50.536;19.204;2023-02-28T07:23:36;11.50;45.60
76305;DHT22;65111;50.536;19.204;2023-02-28T07:26:05;12.00;45.30
76305;DHT22;65111;50.536;19.204;2023-02-28T07:28:31;12.50;44.30
76305;DHT22;65111;50.536;19.204;2023-02-28T07:31:03;12.80;43.30
76305;DHT22;65111;50.536;19.204;2023-02-28T07:33:29;13.20;43.50
76305;DHT22;65111;50.536;19.204;2023-02-28T07:36:03;13.40;42.70
76305;DHT22;65111;50.536;19.204;2023-02-28T07:38:30;13.70;41.60
76305;DHT22;65111;50.536;19.204;2023-02-28T07:40:56;13.80;41.60
76305;DHT22;65111;50.536;19.204;2023-02-28T07:43:22;14.00;41.50
76305;DHT22;65111;50.536;19.204;2023-02-28T07:45:48;14.30;41.50
76305;DHT22;65111;50.536;19.204;2023-02-28T07:48:14;14.70;40.70
76305;DHT22;65111;50.536;19.204;2023-02-28T07:50:40;14.90;40.10
76305;DHT22;65111;50.536;19.204;2023-02-28T07:53:06;15.20;39.90
76305;DHT22;65111;50.536;19.204;2023-02-28T07:55:32;15.60;38.70
76305;DHT22;65111;50.536;19.204;2023-02-28T07:57:58;15.90;38.30
76305;DHT22;65111;50.536;19.204;2023-02-28T08:00:24;16.10;38.00
76305;DHT22;65111;50.536;19.204;2023-02-28T08:02:50;16.40;38.20
76305;DHT22;65111;50.536;19.204;2023-02-28T08:05:16;16.70;37.50
76305;DHT22;65111;50.536;19.204;2023-02-28T08:07:43;17.00;36.60
76305;DHT22;65111;50.536;19.204;2023-02-28T08:10:09;17.10;36.30
76305;DHT22;65111;50.536;19.204;2023-02-28T08:12:36;17.10;36.30
76305;DHT22;65111;50.536;19.204;2023-02-28T08:15:02;17.20;36.30
76305;DHT22;65111;50.536;19.204;2023-02-28T08:17:28;17.30;36.40
76305;DHT22;65111;50.536;19.204;2023-02-28T08:19:54;17.70;36.40
76305;DHT22;65111;50.536;19.204;2023-02-28T08:22:20;18.50;35.40
76305;DHT22;65111;50.536;19.204;2023-02-28T08:24:46;19.10;34.90
76305;DHT22;65111;50.536;19.204;2023-02-28T08:27:13;19.60;33.40
76305;DHT22;65111;50.536;19.204;2023-02-28T08:29:39;20.00;33.90
76305;DHT22;65111;50.536;19.204;2023-02-28T08:32:06;20.50;33.90
76305;DHT22;65111;50.536;19.204;2023-02-28T08:34:32;21.50;33.30
76305;DHT22;65111;50.536;19.204;2023-02-28T08:36:58;22.30;31.70
76305;DHT22;65111;50.536;19.204;2023-02-28T08:39:24;22.00;31.10
76305;DHT22;65111;50.536;19.204;2023-02-28T08:41:50;20.60;32.30
76305;DHT22;65111;50.536;19.204;2023-02-28T08:44:16;18.60;32.80
76305;DHT22;65111;50.536;19.204;2023-02-28T08:46:42;16.20;34.50
76305;DHT22;65111;50.536;19.204;2023-02-28T08:49:10;15.20;36.00
76305;DHT22;65111;50.536;19.204;2023-02-28T08:51:36;15.40;36.20
76305;DHT22;65111;50.536;19.204;2023-02-28T08:54:02;15.90;35.70
76305;DHT22;65111;50.536;19.204;2023-02-28T08:56:28;16.50;36.00
76305;DHT22;65111;50.536;19.204;2023-02-28T08:58:56;17.10;35.40
76305;DHT22;65111;50.536;19.204;2023-02-28T09:03:50;17.40;34.40
76305;DHT22;65111;50.536;19.204;2023-02-28T09:06:18;17.90;34.30
76305;DHT22;65111;50.536;19.204;2023-02-28T09:08:44;18.80;33.20
76305;DHT22;65111;50.536;19.204;2023-02-28T09:11:11;19.80;33.00
76305;DHT22;65111;50.536;19.204;2023-02-28T09:13:38;20.30;32.00
76305;DHT22;65111;50.536;19.204;2023-02-28T09:16:06;20.30;32.30
76305;DHT22;65111;50.536;19.204;2023-02-28T09:18:37;20.30;32.10
76305;DHT22;65111;50.536;19.204;2023-02-28T09:21:08;20.20;32.50
76305;DHT22;65111;50.536;19.204;2023-02-28T09:23:35;19.70;32.20
76305;DHT22;65111;50.536;19.204;2023-02-28T09:26:04;18.80;32.80
76305;DHT22;65111;50.536;19.204;2023-02-28T09:28:30;17.70;33.90
76305;DHT22;65111;50.536;19.204;2023-02-28T09:30:58;17.00;34.60
76305;DHT22;65111;50.536;19.204;2023-02-28T09:33:25;16.40;34.70
76305;DHT22;65111;50.536;19.204;2023-02-28T09:35:59;16.00;34.70
76305;DHT22;65111;50.536;19.204;2023-02-28T09:38:26;15.90;34.60
76305;DHT22;65111;50.536;19.204;2023-02-28T09:40:59;15.70;35.20
76305;DHT22;65111;50.536;19.204;2023-02-28T09:43:34;15.10;35.70
76305;DHT22;65111;50.536;19.204;2023-02-28T09:46:28;14.30;36.10
76305;DHT22;65111;50.536;19.204;2023-02-28T09:48:55;12.70;37.10
76305;DHT22;65111;50.536;19.204;2023-02-28T09:54:16;10.10;39.80
76305;DHT22;65111;50.536;19.204;2023-02-28T09:56:49;9.50;40.20
76305;DHT22;65111;50.536;19.204;2023-02-28T09:59:29;8.90;41.00
76305;DHT22;65111;50.536;19.204;2023-02-28T10:02:04;8.60;41.80
76305;DHT22;65111;50.536;19.204;2023-02-28T10:04:59;8.40;42.10
76305;DHT22;65111;50.536;19.204;2023-02-28T10:10:37;7.60;43.40
76305;DHT22;65111;50.536;19.204;2023-02-28T10:13:12;7.40;43.80
76305;DHT22;65111;50.536;19.204;2023-02-28T10:15:40;7.40;44.40
76305;DHT22;65111;50.536;19.204;2023-02-28T10:18:11;7.30;44.30
76305;DHT22;65111;50.536;19.204;2023-02-28T10:20:40;7.40;44.60
76305;DHT22;65111;50.536;19.204;2023-02-28T10:23:25;7.70;44.30
76305;DHT22;65111;50.536;19.204;2023-02-28T10:26:03;7.90;44.30
76305;DHT22;65111;50.536;19.204;2023-02-28T10:28:31;8.40;44.00
76305;DHT22;65111;50.536;19.204;2023-02-28T10:30:58;8.80;43.60
76305;DHT22;65111;50.536;19.204;2023-02-28T10:33:32;9.40;42.80
76305;DHT22;65111;50.536;19.204;2023-02-28T10:36:01;10.40;42.20
76305;DHT22;65111;50.536;19.204;2023-02-28T10:38:33;11.70;40.90
76305;DHT22;65111;50.536;19.204;2023-02-28T10:41:12;12.70;39.20
76305;DHT22;65111;50.536;19.204;2023-02-28T10:43:40;13.40;38.50
76305;DHT22;65111;50.536;19.204;2023-02-28T10:48:45;14.80;37.30
76305;DHT22;65111;50.536;19.204;2023-02-28T10:51:18;15.70;35.80
76305;DHT22;65111;50.536;19.204;2023-02-28T10:56:21;16.60;35.70
76305;DHT22;65111;50.536;19.204;2023-02-28T11:03:56;16.50;35.60
76305;DHT22;65111;50.536;19.204;2023-02-28T11:06:33;16.50;35.10
76305;DHT22;65111;50.536;19.204;2023-02-28T11:09:18;16.70;35.00
76305;DHT22;65111;50.536;19.204;2023-02-28T11:11:46;16.50;35.20
76305;DHT22;65111;50.536;19.204;2023-02-28T11:14:25;16.50;34.80
76305;DHT22;65111;50.536;19.204;2023-02-28T11:16:54;16.20;35.00
76305;DHT22;65111;50.536;19.204;2023-02-28T11:19:27;15.70;35.30
76305;DHT22;65111;50.536;19.204;2023-02-28T11:22:00;15.10;36.40
76305;DHT22;65111;50.536;19.204;2023-02-28T11:24:30;15.00;36.90
76305;DHT22;65111;50.536;19.204;2023-02-28T11:26:57;15.30;36.90
76305;DHT22;65111;50.536;19.204;2023-02-28T11:29:27;15.50;36.20
76305;DHT22;65111;50.536;19.204;2023-02-28T11:32:21;16.20;35.80
76305;DHT22;65111;50.536;19.204;2023-02-28T11:35:03;17.30;34.90
76305;DHT22;65111;50.536;19.204;2023-02-28T11:37:31;18.70;33.70
76305;DHT22;65111;50.536;19.204;2023-02-28T11:39:58;20.30;33.20
76305;DHT22;65111;50.536;19.204;2023-02-28T11:45:19;24.50;30.90
76305;DHT22;65111;50.536;19.204;2023-02-28T12:02:15;32.00;27.50
76305;DHT22;65111;50.536;19.204;2023-02-28T12:10:22;31.80;26.60
76305;DHT22;65111;50.536;19.204;2023-02-28T12:13:12;31.70;27.00
76305;DHT22;65111;50.536;19.204;2023-02-28T12:26:46;32.90;26.20
76305;DHT22;65111;50.536;19.204;2023-02-28T12:29:28;32.40;25.30
76305;DHT22;65111;50.536;19.204;2023-02-28T12:34:53;30.00;25.70
76305;DHT22;65111;50.536;19.204;2023-02-28T12:37:36;28.90;26.10
76305;DHT22;65111;50.536;19.204;2023-02-28T12:40:10;28.00;26.20
76305;DHT22;65111;50.536;19.204;2023-02-28T12:42:41;27.10;26.50
76305;DHT22;65111;50.536;19.204;2023-02-28T12:45:20;26.20;26.80
76305;DHT22;65111;50.536;19.204;2023-02-28T12:48:06;25.10;27.10
76305;DHT22;65111;50.536;19.204;2023-02-28T12:50:34;24.40;27.50
76305;DHT22;65111;50.536;19.204;2023-02-28T12:58:55;20.00;29.60
76305;DHT22;65111;50.536;19.204;2023-02-28T13:01:40;18.60;30.30
76305;DHT22;65111;50.536;19.204;2023-02-28T13:07:21;14.20;33.50
76305;DHT22;65111;50.536;19.204;2023-02-28T13:09:59;12.10;35.80
76305;DHT22;65111;50.536;19.204;2023-02-28T13:12:26;10.40;37.60
76305;DHT22;65111;50.536;19.204;2023-02-28T13:17:29;8.00;40.90
76305;DHT22;65111;50.536;19.204;2023-02-28T13:19:57;7.00;41.60
76305;DHT22;65111;50.536;19.204;2023-02-28T13:22:46;6.40;43.50
76305;DHT22;65111;50.536;19.204;2023-02-28T13:27:55;5.20;44.70
76305;DHT22;65111;50.536;19.204;2023-02-28T13:36:09;4.50;46.40
76305;DHT22;65111;50.536;19.204;2023-02-28T13:38:38;4.20;47.10
76305;DHT22;65111;50.536;19.204;2023-02-28T13:57:30;3.50;51.70
76305;DHT22;65111;50.536;19.204;2023-02-28T14:09:16;3.30;52.20
76305;DHT22;65111;50.536;19.204;2023-02-28T14:11:45;3.20;52.90
76305;DHT22;65111;50.536;19.204;2023-02-28T14:17:07;3.20;53.90
76305;DHT22;65111;50.536;19.204;2023-02-28T14:19:37;3.20;52.10
76305;DHT22;65111;50.536;19.204;2023-02-28T14:25:29;2.80;52.50
76305;DHT22;65111;50.536;19.204;2023-02-28T14:30:52;2.90;53.10
76305;DHT22;65111;50.536;19.204;2023-02-28T14:38:50;2.70;54.50
76305;DHT22;65111;50.536;19.204;2023-02-28T14:41:30;2.80;54.40
76305;DHT22;65111;50.536;19.204;2023-02-28T14:43:59;2.80;54.00
76305;DHT22;65111;50.536;19.204;2023-02-28T14:46:30;2.70;54.50
76305;DHT22;65111;50.536;19.204;2023-02-28T14:49:01;2.80;54.70
76305;DHT22;65111;50.536;19.204;2023-02-28T14:51:29;2.70;54.50
76305;DHT22;65111;50.536;19.204;2023-02-28T14:53:59;2.60;54.40
76305;DHT22;65111;50.536;19.204;2023-02-28T14:56:34;2.30;54.20
76305;DHT22;65111;50.536;19.204;2023-02-28T14:59:00;2.30;54.30
76305;DHT22;65111;50.536;19.204;2023-02-28T15:01:27;2.40;55.30
76305;DHT22;65111;50.536;19.204;2023-02-28T15:04:05;2.30;55.20
76305;DHT22;65111;50.536;19.204;2023-02-28T15:06:32;2.20;55.80
76305;DHT22;65111;50.536;19.204;2023-02-28T15:09:17;2.20;54.90
76305;DHT22;65111;50.536;19.204;2023-02-28T15:11:48;2.00;54.90
76305;DHT22;65111;50.536;19.204;2023-02-28T15:14:18;2.10;55.50
76305;DHT22;65111;50.536;19.204;2023-02-28T15:16:50;1.90;55.80
76305;DHT22;65111;50.536;19.204;2023-02-28T15:19:25;2.00;56.10
76305;DHT22;65111;50.536;19.204;2023-02-28T15:21:56;1.90;56.20
76305;DHT22;65111;50.536;19.204;2023-02-28T15:24:44;1.70;55.60
76305;DHT22;65111;50.536;19.204;2023-02-28T15:27:19;1.70;55.80
76305;DHT22;65111;50.536;19.204;2023-02-28T15:29:49;1.70;56.60
76305;DHT22;65111;50.536;19.204;2023-02-28T15:34:54;1.70;57.90
76305;DHT22;65111;50.536;19.204;2023-02-28T15:39:54;1.50;57.60
76305;DHT22;65111;50.536;19.204;2023-02-28T15:42:30;1.20;57.80
76305;DHT22;65111;50.536;19.204;2023-02-28T15:44:57;1.30;57.90
76305;DHT22;65111;50.536;19.204;2023-02-28T15:47:29;1.20;58.40
76305;DHT22;65111;50.536;19.204;2023-02-28T15:50:03;1.20;58.40
76305;DHT22;65111;50.536;19.204;2023-02-28T15:52:41;1.20;58.60
76305;DHT22;65111;50.536;19.204;2023-02-28T15:55:11;1.10;58.00
76305;DHT22;65111;50.536;19.204;2023-02-28T15:57:41;0.80;58.10
76305;DHT22;65111;50.536;19.204;2023-02-28T16:00:15;0.90;58.20
76305;DHT22;65111;50.536;19.204;2023-02-28T16:02:42;0.90;58.30
76305;DHT22;65111;50.536;19.204;2023-02-28T16:07:38;0.60;58.60
76305;DHT22;65111;50.536;19.204;2023-02-28T16:10:06;0.60;58.80
76305;DHT22;65111;50.536;19.204;2023-02-28T16:12:34;0.50;59.00
76305;DHT22;65111;50.536;19.204;2023-02-28T16:15:07;0.40;59.20
76305;DHT22;65111;50.536;19.204;2023-02-28T16:17:35;0.40;59.60
76305;DHT22;65111;50.536;19.204;2023-02-28T16:20:13;0.10;60.20
76305;DHT22;65111;50.536;19.204;2023-02-28T16:22:41;0.10;60.30
76305;DHT22;65111;50.536;19.204;2023-02-28T16:25:14;0.00;60.70
76305;DHT22;65111;50.536;19.204;2023-02-28T16:27:42;0.00;61.20
76305;DHT22;65111;50.536;19.204;2023-02-28T16:30:21;0.00;61.40
76305;DHT22;65111;50.536;19.204;2023-02-28T16:32:48;-3276.70;61.50
76305;DHT22;65111;50.536;19.204;2023-02-28T16:35:15;-3276.60;62.00
76305;DHT22;65111;50.536;19.204;2023-02-28T16:37:43;-3276.60;62.20
76305;DHT22;65111;50.536;19.204;2023-02-28T16:40:18;-3276.50;62.20
76305;DHT22;65111;50.536;19.204;2023-02-28T16:42:47;-3276.50;62.60
76305;DHT22;65111;50.536;19.204;2023-02-28T16:45:20;-3276.60;62.90
76305;DHT22;65111;50.536;19.204;2023-02-28T16:47:47;-3276.30;63.30
76305;DHT22;65111;50.536;19.204;2023-02-28T16:50:19;-3276.40;63.40
76305;DHT22;65111;50.536;19.204;2023-02-28T16:52:45;-3276.10;63.00
76305;DHT22;65111;50.536;19.204;2023-02-28T16:55:12;-3276.20;63.40
76305;DHT22;65111;50.536;19.204;2023-02-28T16:57:39;-3276.10;64.30
76305;DHT22;65111;50.536;19.204;2023-02-28T17:00:08;-3276.20;65.40
76305;DHT22;65111;50.536;19.204;2023-02-28T17:02:34;-3276.10;65.80
76305;DHT22;65111;50.536;19.204;2023-02-28T17:05:00;-3276.30;65.40
76305;DHT22;65111;50.536;19.204;2023-02-28T17:07:26;-3276.10;64.60
76305;DHT22;65111;50.536;19.204;2023-02-28T17:09:52;-3275.90;64.50
76305;DHT22;65111;50.536;19.204;2023-02-28T17:12:18;-3275.70;64.30
76305;DHT22;65111;50.536;19.204;2023-02-28T17:14:43;-3275.50;64.60
76305;DHT22;65111;50.536;19.204;2023-02-28T17:17:19;-3275.30;65.70
76305;DHT22;65111;50.536;19.204;2023-02-28T17:19:47;-3275.20;68.40
76305;DHT22;65111;50.536;19.204;2023-02-28T17:22:13;-3275.30;69.80
76305;DHT22;65111;50.536;19.204;2023-02-28T17:24:40;-3275.40;69.40
76305;DHT22;65111;50.536;19.204;2023-02-28T17:27:08;-3275.20;69.00
76305;DHT22;65111;50.536;19.204;2023-02-28T17:29:34;-3275.20;68.60
76305;DHT22;65111;50.536;19.204;2023-02-28T17:32:00;-3275.40;68.70
76305;DHT22;65111;50.536;19.204;2023-02-28T17:34:26;-3275.30;68.50
76305;DHT22;65111;50.536;19.204;2023-02-28T17:36:52;-3275.40;67.80
76305;DHT22;65111;50.536;19.204;2023-02-28T17:41:54;-3275.70;67.60
76305;DHT22;65111;50.536;19.204;2023-02-28T17:44:22;-3275.60;67.60
76305;DHT22;65111;50.536;19.204;2023-02-28T17:46:50;-3275.50;67.20
76305;DHT22;65111;50.536;19.204;2023-02-28T17:49:17;-3275.30;67.20
76305;DHT22;65111;50.536;19.204;2023-02-28T17:51:44;-3275.10;67.40
76305;DHT22;65111;50.536;19.204;2023-02-28T17:54:10;-3275.10;67.60
76305;DHT22;65111;50.536;19.204;2023-02-28T17:56:36;-3275.10;67.60
76305;DHT22;65111;50.536;19.204;2023-02-28T17:59:02;-3274.90;67.60
76305;DHT22;65111;50.536;19.204;2023-02-28T18:01:28;-3274.90;67.80
76305;DHT22;65111;50.536;19.204;2023-02-28T18:03:55;-3274.80;67.70